Airfield :
LOGIN :

Register | Disclaimer

   EN    FR    IT 

 










Legend :    VFR   Marginal VFR   IFR   Intensive IFR   Very Intensive IFR
Visi :
Ceiling :
>= 8 km
>= 3000ft
5 to 8 km
1000 to 3000 ft
1500m to 5 km
500 to 1000 ft
800 to 1500m
200 to 500 ft
< 800m
< 200 ft
Symbols :   Thunderstorms  Fog  Heavy snow  Heavy precipitations  Wind > 20 kt
SIGMETs :     Misc.  Thunderstorms  Icing  Turbulence  Mountain Waves  Volcanic Ashes







- Airport Elevation : 55 ft
- Download approach charts


EGNO - Warton Preston

CURRENT METAR :
  • 270750Z 08010KT 060V120 CAVOK 16/12 Q1031

EXPIRED METARs :
  • 270720Z 07009KT CAVOK 14/11 Q1031
  • 270650Z 08009KT CAVOK 13/10 Q1031
  • 270620Z 08008KT CAVOK 12/10 Q1031
  • 270550Z 07007KT CAVOK 11/10 Q1031

TAF TAF EGNO
Valid from the 27 at 06:00 until the 27 at 15:00 UTC


270628Z 2706/2715 09008KT CAVOK
ATIS : +44 1772 856 060
No reported NOTAMs for that airfield.
1 SIGMET reported for the London FIR (EGTT) :
 
Severe turbulence
EGTT SIGMET 06 VALID 270800/271100 EGRR
EGTT LONDON FIR SEV TURB FCST S OF LINE N5035 W00800 - N5109 E00200 SFC/FL030 STNR WKN=



MET'MAP, your aeronautical weather chart ! - Copyright ORBIFLY December 2007 - Disclaimer

ORBIFLY MET'MAP TEAM :

Programming & Development : Alexandra Zaïnal
Concept & Development : Baudouin d'Aumeries
Co-Development & Prog : Marc-Olivier Méhu
Technical & hardware support : Manuel Goepfert

Contact : metmap@orbifly.com




SOURCES & CREDITS :

   NOAA